Time;durP1;ratioP1;P1;durP2;ratioP2;P2;SDS_P1;SDS_P2;PMS_P1;PMS_P2;Temp;Humidity;BMP_temperature;BMP_pressure;BME280_temperature;BME280_humidity;BME280_pressure;Samples;Min_cycle;Max_cycle;Signal;HPM_P1;HPM_P2
2021/06/23 00:01:40;;;;;;;12.02;6.28;;;12.50;99.90;;;;;;5027970;28;20042;-48
2021/06/23 00:04:07;;;;;;;14.00;6.15;;;12.50;99.90;;;;;;5025614;28;20041;-47
2021/06/23 00:06:33;;;;;;;11.52;7.53;;;12.40;99.90;;;;;;5027584;28;20051;-44
2021/06/23 00:08:59;;;;;;;14.10;5.95;;;12.40;99.90;;;;;;5027877;28;20045;-49
2021/06/23 00:11:30;;;;;;;13.55;6.57;;;12.40;99.90;;;;;;5027574;28;20046;-47
2021/06/23 00:13:58;;;;;;;10.93;6.55;;;12.40;99.90;;;;;;5027236;28;20076;-47
2021/06/23 00:16:24;;;;;;;11.23;7.00;;;12.40;99.90;;;;;;5027037;28;20050;-47
2021/06/23 00:18:50;;;;;;;15.27;6.97;;;12.40;99.90;;;;;;5028330;28;20496;-45
2021/06/23 00:21:16;;;;;;;10.90;7.00;;;12.40;99.90;;;;;;5026602;28;20055;-49
2021/06/23 00:23:42;;;;;;;13.95;6.65;;;12.40;99.90;;;;;;5026699;28;20164;-47
2021/06/23 00:26:08;;;;;;;11.82;7.43;;;12.30;99.90;;;;;;5026644;28;20049;-47
2021/06/23 00:28:35;;;;;;;14.18;7.43;;;12.30;99.90;;;;;;5027117;28;20739;-48
2021/06/23 00:31:01;;;;;;;16.98;7.65;;;12.30;99.90;;;;;;5026106;28;20050;-46
2021/06/23 00:33:32;;;;;;;13.55;7.10;;;12.30;99.90;;;;;;5027378;28;20048;-46
2021/06/23 00:35:59;;;;;;;12.13;7.40;;;12.30;99.90;;;;;;5026004;28;20506;-49
2021/06/23 00:38:25;;;;;;;12.50;7.35;;;12.20;99.90;;;;;;5026783;28;20049;-46
2021/06/23 00:40:51;;;;;;;13.27;7.22;;;12.20;99.90;;;;;;5029497;28;20467;-46
2021/06/23 00:43:18;;;;;;;10.32;6.70;;;12.20;99.90;;;;;;5019298;28;20083;-43
2021/06/23 00:45:45;;;;;;;12.25;8.27;;;12.20;99.90;;;;;;5026535;28;20127;-47
2021/06/23 00:48:29;;;;;;;14.50;7.93;;;12.20;99.90;;;;;;5026039;28;20056;-47
2021/06/23 00:51:01;;;;;;;12.60;7.20;;;12.20;99.90;;;;;;5024099;28;20065;-48
2021/06/23 00:53:40;;;;;;;15.45;7.32;;;12.20;99.90;;;;;;5020825;28;20543;-48
2021/06/23 00:56:06;;;;;;;10.40;7.30;;;12.20;99.90;;;;;;5006438;28;20479;-44
2021/06/23 00:58:33;;;;;;;14.73;8.02;;;12.20;99.90;;;;;;5015215;28;20040;-45
2021/06/23 01:01:03;;;;;;;12.18;7.53;;;12.20;99.90;;;;;;5025256;28;20505;-45
2021/06/23 01:03:30;;;;;;;11.73;8.00;;;12.20;99.90;;;;;;5025178;28;20048;-46
2021/06/23 01:06:07;;;;;;;11.88;7.63;;;12.20;99.90;;;;;;5025800;28;20548;-46
2021/06/23 01:08:33;;;;;;;13.48;7.97;;;12.20;99.90;;;;;;5024741;28;20864;-47
2021/06/23 01:11:05;;;;;;;12.43;7.53;;;12.20;99.90;;;;;;5026736;28;20056;-48
2021/06/23 01:13:35;;;;;;;10.93;7.07;;;12.20;99.90;;;;;;5027795;28;20057;-48
2021/06/23 01:16:11;;;;;;;15.70;7.70;;;12.20;99.90;;;;;;5026938;28;20049;-47
2021/06/23 01:18:39;;;;;;;10.07;7.15;;;12.30;99.90;;;;;;5027294;28;20122;-45
2021/06/23 01:21:08;;;;;;;16.20;8.02;;;12.20;99.90;;;;;;5025746;28;20497;-44
2021/06/23 01:23:37;;;;;;;13.13;7.00;;;12.30;99.90;;;;;;5026008;28;20045;-45
2021/06/23 01:26:04;;;;;;;11.95;6.80;;;12.30;99.90;;;;;;5026442;28;20057;-49
2021/06/23 01:28:36;;;;;;;12.85;7.50;;;12.30;99.90;;;;;;5026065;28;20045;-44
2021/06/23 01:31:13;;;;;;;12.63;7.18;;;12.30;99.90;;;;;;5024638;28;20636;-46
2021/06/23 01:33:40;;;;;;;17.13;6.90;;;12.30;99.90;;;;;;5026450;28;20088;-45
2021/06/23 01:36:07;;;;;;;10.38;6.95;;;12.30;99.90;;;;;;5025814;28;20037;-47
2021/06/23 01:38:33;;;;;;;16.02;7.60;;;12.30;99.90;;;;;;5025036;28;20075;-43
2021/06/23 01:41:01;;;;;;;14.40;6.55;;;12.30;99.90;;;;;;5025597;28;20132;-48
2021/06/23 01:43:28;;;;;;;12.05;5.68;;;12.30;99.90;;;;;;5024570;28;20128;-48
2021/06/23 01:45:57;;;;;;;9.70;6.55;;;12.30;99.90;;;;;;5039488;28;20603;-48
2021/06/23 01:48:26;;;;;;;12.48;6.47;;;12.30;99.90;;;;;;5025806;28;20045;-45
2021/06/23 01:50:55;;;;;;;15.70;6.85;;;12.40;99.90;;;;;;5025557;28;20103;-48
2021/06/23 01:53:25;;;;;;;14.27;6.57;;;12.40;99.90;;;;;;5021604;28;20765;-45
2021/06/23 01:55:52;;;;;;;15.07;7.43;;;12.40;99.90;;;;;;5013009;28;20270;-47
2021/06/23 01:58:21;;;;;;;13.07;6.22;;;12.40;99.90;;;;;;5024126;28;20053;-47
2021/06/23 02:01:16;;;;;;;12.57;6.25;;;12.50;99.90;;;;;;5025675;28;20041;-46
2021/06/23 02:03:57;;;;;;;;;;;12.50;99.90;;;;;;5037508;28;20050;-47
2021/06/23 02:06:52;;;;;;;10.35;6.22;;;12.50;99.90;;;;;;5019253;28;19944;-47
2021/06/23 02:09:46;;;;;;;10.65;7.35;;;12.40;99.90;;;;;;5026073;28;20049;-43
2021/06/23 02:12:31;;;;;;;13.90;7.65;;;12.30;99.90;;;;;;5019946;28;20450;-47
2021/06/23 02:15:05;;;;;;;15.65;7.32;;;12.30;99.90;;;;;;5023752;28;20440;-48
2021/06/23 02:17:59;;;;;;;15.60;8.18;;;12.20;99.90;;;;;;5017930;28;20072;-46
2021/06/23 02:20:51;;;;;;;12.82;8.15;;;12.20;99.90;;;;;;5012633;28;20144;-46
2021/06/23 02:23:21;;;;;;;13.70;8.65;;;12.20;99.90;;;;;;5027143;28;20038;-54
2021/06/23 02:25:49;;;;;;;16.55;8.50;;;12.20;99.90;;;;;;5032558;28;20065;-51
2021/06/23 02:28:21;;;;;;;14.40;8.33;;;12.20;99.90;;;;;;5028389;28;20037;-45
2021/06/23 02:30:50;;;;;;;14.27;8.75;;;12.20;99.90;;;;;;5027522;28;20046;-43
2021/06/23 02:33:18;;;;;;;15.20;9.02;;;12.20;99.90;;;;;;5016010;28;20046;-52
2021/06/23 02:35:53;;;;;;;14.55;9.43;;;12.20;99.90;;;;;;5026671;28;20098;-44
2021/06/23 02:38:30;;;;;;;16.00;9.77;;;12.20;99.90;;;;;;5025570;28;20049;-44
2021/06/23 02:40:59;;;;;;;14.13;10.27;;;12.10;99.90;;;;;;5028136;28;20038;-45
2021/06/23 02:43:26;;;;;;;14.18;9.90;;;12.10;99.90;;;;;;5027654;28;20045;-47
2021/06/23 02:45:57;;;;;;;19.83;10.90;;;12.00;99.90;;;;;;5027566;28;20160;-46
2021/06/23 02:48:27;;;;;;;13.60;10.57;;;12.00;99.90;;;;;;5027480;28;20091;-41
2021/06/23 02:51:16;;;;;;;15.57;11.02;;;12.00;99.90;;;;;;5028191;28;20076;-41
2021/06/23 02:53:47;;;;;;;18.77;10.45;;;11.90;99.90;;;;;;5027354;28;20045;-46
2021/06/23 02:56:15;;;;;;;18.25;11.98;;;11.90;99.90;;;;;;5028723;28;20056;-43
2021/06/23 02:58:50;;;;;;;17.08;12.40;;;11.90;99.90;;;;;;5028179;28;20046;-43
2021/06/23 03:01:17;;;;;;;14.57;11.00;;;11.90;99.90;;;;;;5027675;28;20497;-45
2021/06/23 03:03:53;;;;;;;14.73;10.40;;;11.90;99.90;;;;;;5022478;28;20194;-43
2021/06/23 03:06:23;;;;;;;21.08;10.93;;;11.90;99.90;;;;;;5017382;28;20417;-42
2021/06/23 03:08:52;;;;;;;16.02;10.68;;;11.90;99.90;;;;;;5024114;28;20179;-46
2021/06/23 03:11:37;;;;;;;17.33;12.10;;;11.90;99.90;;;;;;5043713;28;20041;-47
2021/06/23 03:14:11;;;;;;;16.83;11.57;;;11.90;99.90;;;;;;5026845;28;20052;-44
2021/06/23 03:16:48;;;;;;;21.10;13.13;;;11.90;99.90;;;;;;5020743;28;20587;-47
2021/06/23 03:19:15;;;;;;;18.55;12.70;;;11.90;99.90;;;;;;5021450;28;20049;-43
2021/06/23 03:21:42;;;;;;;18.80;12.90;;;11.90;99.90;;;;;;5026275;28;20145;-47
2021/06/23 03:24:09;;;;;;;17.45;12.57;;;11.90;99.90;;;;;;5026992;28;20045;-45
2021/06/23 03:26:37;;;;;;;19.83;13.23;;;11.90;99.90;;;;;;5026792;28;20053;-48
2021/06/23 03:29:13;;;;;;;19.83;11.70;;;11.90;99.90;;;;;;5006955;28;20050;-43
2021/06/23 03:31:40;;;;;;;17.08;12.77;;;11.90;99.90;;;;;;5025361;28;20045;-44
2021/06/23 03:34:07;;;;;;;17.05;14.05;;;12.00;99.90;;;;;;5026149;28;20053;-48
2021/06/23 03:36:45;;;;;;;14.88;11.95;;;12.00;99.90;;;;;;5025596;28;20866;-46
2021/06/23 03:39:12;;;;;;;17.05;13.43;;;12.00;99.90;;;;;;5026948;28;20056;-48
2021/06/23 03:41:51;;;;;;;17.88;13.10;;;12.00;99.90;;;;;;5014553;28;20048;-46
2021/06/23 03:44:20;;;;;;;19.73;12.82;;;12.00;99.90;;;;;;5028248;28;20037;-42
2021/06/23 03:46:46;;;;;;;16.50;11.90;;;12.00;99.90;;;;;;5009807;28;20441;-47
2021/06/23 03:49:16;;;;;;;17.80;13.18;;;12.00;99.90;;;;;;5032107;28;20099;-47
2021/06/23 03:51:43;;;;;;;15.85;12.40;;;12.10;99.90;;;;;;5025854;28;20045;-48
2021/06/23 03:54:10;;;;;;;15.27;11.23;;;12.00;99.90;;;;;;5024560;28;20107;-44
2021/06/23 03:56:42;;;;;;;14.77;11.65;;;12.10;99.90;;;;;;5037370;28;20049;-48
2021/06/23 03:59:08;;;;;;;15.63;11.38;;;12.10;99.90;;;;;;5022896;28;20381;-53
2021/06/23 04:01:35;;;;;;;19.48;12.20;;;12.10;99.90;;;;;;5009427;28;20080;-45
2021/06/23 04:04:10;;;;;;;15.55;12.63;;;12.10;99.90;;;;;;5025926;28;20136;-44
2021/06/23 04:06:41;;;;;;;18.77;14.68;;;12.20;99.90;;;;;;5025757;28;20136;-45
2021/06/23 04:09:09;;;;;;;15.77;12.02;;;12.20;99.90;;;;;;5026549;28;20146;-41
2021/06/23 04:11:40;;;;;;;16.20;13.43;;;12.30;99.90;;;;;;5028514;28;20041;-46
2021/06/23 04:14:06;;;;;;;13.32;10.90;;;12.30;99.90;;;;;;5026493;28;20049;-45
2021/06/23 04:16:33;;;;;;;17.73;12.57;;;12.30;99.90;;;;;;5027289;28;20515;-47
2021/06/23 04:19:01;;;;;;;17.63;12.38;;;12.30;99.90;;;;;;5025460;28;20505;-46
2021/06/23 04:21:27;;;;;;;14.80;11.80;;;12.30;99.90;;;;;;5027216;28;20053;-46
2021/06/23 04:24:01;;;;;;;21.25;13.00;;;12.30;99.90;;;;;;5030103;28;20048;-48
2021/06/23 04:26:33;;;;;;;13.65;12.13;;;12.40;99.90;;;;;;5025843;28;20056;-43
2021/06/23 04:29:01;;;;;;;19.13;13.05;;;12.40;99.90;;;;;;5024828;28;20052;-46
2021/06/23 04:31:28;;;;;;;19.10;13.40;;;12.40;99.90;;;;;;5026402;28;20672;-46
2021/06/23 04:33:54;;;;;;;18.65;13.60;;;12.50;99.90;;;;;;5027047;28;20479;-45
2021/06/23 04:36:25;;;;;;;17.42;13.40;;;12.60;99.90;;;;;;5027040;28;20069;-49
2021/06/23 04:38:52;;;;;;;14.50;12.15;;;12.60;99.90;;;;;;5040262;28;20064;-46
2021/06/23 04:41:18;;;;;;;17.35;12.40;;;12.60;99.90;;;;;;5027024;28;20105;-47
2021/06/23 04:43:44;;;;;;;15.18;12.13;;;12.70;99.90;;;;;;5025603;28;20138;-46
2021/06/23 04:46:15;;;;;;;15.82;12.50;;;12.70;99.90;;;;;;5030842;28;20045;-47
2021/06/23 04:48:41;;;;;;;13.52;11.57;;;12.70;99.90;;;;;;5026226;28;20046;-45
2021/06/23 04:51:15;;;;;;;15.55;11.70;;;12.80;99.90;;;;;;5021429;28;20046;-48
2021/06/23 04:53:43;;;;;;;16.13;12.32;;;12.80;99.90;;;;;;5005865;28;20068;-49
2021/06/23 04:56:09;;;;;;;13.85;10.88;;;12.90;99.90;;;;;;5021973;28;20107;-46
2021/06/23 04:58:42;;;;;;;17.00;11.30;;;12.90;99.90;;;;;;5006745;28;20490;-49
2021/06/23 05:01:11;;;;;;;15.55;10.77;;;12.90;99.90;;;;;;5014588;28;20071;-45
2021/06/23 05:03:48;;;;;;;16.13;10.73;;;13.00;99.90;;;;;;5025096;28;20053;-49
2021/06/23 05:06:15;;;;;;;16.00;10.38;;;13.00;99.90;;;;;;5026983;28;20041;-47
2021/06/23 05:08:41;;;;;;;18.08;10.00;;;13.00;99.90;;;;;;5026373;28;20501;-44
2021/06/23 05:11:23;;;;;;;13.52;9.38;;;13.00;99.90;;;;;;5026348;28;20080;-46
2021/06/23 05:13:50;;;;;;;13.45;9.25;;;13.00;99.90;;;;;;5026240;28;20127;-48
2021/06/23 05:16:25;;;;;;;13.45;9.65;;;13.10;99.90;;;;;;5026513;28;20147;-46
2021/06/23 05:18:54;;;;;;;11.63;8.93;;;13.20;99.90;;;;;;5026453;28;20049;-47
2021/06/23 05:21:22;;;;;;;13.30;8.05;;;13.30;99.90;;;;;;5017536;28;20137;-49
2021/06/23 05:23:49;;;;;;;13.40;8.10;;;13.40;99.90;;;;;;5021953;28;20038;-50
2021/06/23 05:26:17;;;;;;;15.18;7.90;;;13.40;99.90;;;;;;5025297;28;20682;-48
2021/06/23 05:28:43;;;;;;;12.35;7.53;;;13.40;99.90;;;;;;5028531;28;20367;-47
2021/06/23 05:31:10;;;;;;;11.65;7.38;;;13.30;99.90;;;;;;5024852;28;20057;-47
2021/06/23 05:33:38;;;;;;;10.30;7.18;;;13.40;99.90;;;;;;5026446;28;20045;-50
2021/06/23 05:36:05;;;;;;;14.48;10.50;;;13.50;99.90;;;;;;5025200;28;20053;-46
2021/06/23 05:38:31;;;;;;;11.00;7.22;;;13.70;99.90;;;;;;5026267;28;20048;-47
2021/06/23 05:40:57;;;;;;;30.40;22.60;;;13.80;99.90;;;;;;5026775;28;20051;-48
2021/06/23 05:43:23;;;;;;;13.65;7.85;;;13.90;99.90;;;;;;5026162;28;20545;-46
2021/06/23 05:45:50;;;;;;;15.68;7.88;;;14.00;99.90;;;;;;5025905;28;20077;-47
2021/06/23 05:48:16;;;;;;;10.82;7.20;;;14.20;99.90;;;;;;5026042;28;20045;-48
2021/06/23 05:50:45;;;;;;;14.57;7.30;;;14.30;99.90;;;;;;5026494;28;20077;-50
2021/06/23 05:53:12;;;;;;;13.60;6.97;;;14.40;99.90;;;;;;5026592;28;20045;-45
2021/06/23 05:55:40;;;;;;;15.88;8.68;;;14.50;99.90;;;;;;5025925;28;20049;-48
2021/06/23 05:58:09;;;;;;;11.57;6.10;;;14.60;99.90;;;;;;5027868;28;20041;-47
2021/06/23 06:00:36;;;;;;;14.23;5.85;;;14.80;99.90;;;;;;5023987;28;20541;-48
2021/06/23 06:03:05;;;;;;;12.13;6.13;;;14.80;99.90;;;;;;5025146;28;20048;-49
2021/06/23 06:05:32;;;;;;;13.55;8.20;;;14.90;99.90;;;;;;5028857;28;20385;-47
2021/06/23 06:08:03;;;;;;;11.75;5.95;;;14.90;99.90;;;;;;5029851;28;20093;-46
2021/06/23 06:10:29;;;;;;;12.02;6.20;;;14.90;99.90;;;;;;5021057;28;20172;-46
2021/06/23 06:12:56;;;;;;;13.15;5.90;;;15.00;99.90;;;;;;5028093;28;20049;-48
2021/06/23 06:15:24;;;;;;;9.85;4.88;;;14.90;99.90;;;;;;5019701;28;20042;-48
2021/06/23 06:17:50;;;;;;;13.50;4.60;;;14.80;99.90;;;;;;5028377;28;20057;-46
2021/06/23 06:20:19;;;;;;;10.45;4.93;;;14.80;99.90;;;;;;5028528;28;20072;-45
2021/06/23 06:22:45;;;;;;;11.27;8.60;;;15.00;99.90;;;;;;5024590;28;20057;-44
2021/06/23 06:25:14;;;;;;;13.77;4.50;;;15.40;99.90;;;;;;5016371;28;20053;-44
2021/06/23 06:27:40;;;;;;;12.77;4.60;;;16.00;99.90;;;;;;5025915;28;20042;-45
2021/06/23 06:30:10;;;;;;;8.95;4.00;;;16.60;99.90;;;;;;5028379;28;20057;-46
2021/06/23 06:32:38;;;;;;;12.35;4.45;;;16.80;99.90;;;;;;5030043;28;20065;-46
2021/06/23 06:35:05;;;;;;;13.75;7.55;;;16.70;99.90;;;;;;5029426;28;20046;-44
2021/06/23 06:37:31;;;;;;;13.45;4.00;;;16.80;99.90;;;;;;5028033;28;20042;-45
2021/06/23 06:39:58;;;;;;;12.20;5.72;;;16.80;99.90;;;;;;5028235;28;20136;-49
2021/06/23 06:42:24;;;;;;;35.88;30.15;;;16.60;99.90;;;;;;5025953;28;20041;-49
2021/06/23 06:44:51;;;;;;;13.52;5.80;;;16.30;99.90;;;;;;5049793;28;20045;-48
2021/06/23 06:47:19;;;;;;;15.15;4.13;;;16.30;99.90;;;;;;5028304;28;20163;-44
2021/06/23 06:49:48;;;;;;;10.23;3.70;;;16.30;99.90;;;;;;5028966;28;20160;-47
2021/06/23 06:52:14;;;;;;;13.40;6.95;;;16.30;99.90;;;;;;5028181;28;20477;-47
2021/06/23 06:54:40;;;;;;;10.80;4.47;;;16.40;99.90;;;;;;5030422;28;20072;-46
2021/06/23 06:57:06;;;;;;;9.10;4.00;;;16.80;99.90;;;;;;5026248;28;20037;-45
2021/06/23 06:59:33;;;;;;;10.15;2.80;;;16.90;99.90;;;;;;5024792;28;20050;-44
2021/06/23 07:01:59;;;;;;;29.20;23.90;;;17.50;99.90;;;;;;5031778;28;20045;-48
2021/06/23 07:04:26;;;;;;;11.02;3.47;;;18.20;99.90;;;;;;5035042;28;20046;-47
2021/06/23 07:06:53;;;;;;;12.70;7.30;;;18.60;99.90;;;;;;5026575;28;20050;-45
2021/06/23 07:09:19;;;;;;;12.63;5.30;;;18.60;99.90;;;;;;5029129;28;20111;-51
2021/06/23 07:11:47;;;;;;;11.50;4.28;;;18.60;99.50;;;;;;5000379;28;20049;-45
2021/06/23 07:14:15;;;;;;;11.30;4.57;;;18.60;99.90;;;;;;5014559;28;20103;-49
2021/06/23 07:16:42;;;;;;;10.75;2.45;;;19.10;99.90;;;;;;5014448;28;20631;-48
2021/06/23 07:19:11;;;;;;;8.52;2.85;;;19.30;99.90;;;;;;5026503;28;20053;-47
2021/06/23 07:21:41;;;;;;;19.65;11.63;;;19.60;99.90;;;;;;5027485;28;20076;-48
2021/06/23 07:24:08;;;;;;;10.52;4.40;;;19.50;99.70;;;;;;5038050;28;20045;-48
2021/06/23 07:26:37;;;;;;;11.35;5.72;;;19.70;99.30;;;;;;5023703;28;20049;-48
2021/06/23 07:29:06;;;;;;;10.68;5.50;;;19.50;97.30;;;;;;5026070;28;20037;-48
2021/06/23 07:36:33;;;;;;;8.55;2.50;;;18.90;96.50;;;;;;5025615;28;20083;-47
2021/06/23 07:39:08;;;;;;;7.43;3.88;;;18.70;96.80;;;;;;5028381;28;20074;-48
2021/06/23 07:41:35;;;;;;;14.45;6.68;;;18.50;95.60;;;;;;5032415;28;20052;-47
2021/06/23 07:44:02;;;;;;;12.63;5.68;;;19.00;96.10;;;;;;5027290;28;20053;-47
2021/06/23 07:46:33;;;;;;;31.33;23.95;;;18.80;95.40;;;;;;5030871;28;20046;-47
2021/06/23 07:49:00;;;;;;;15.93;6.53;;;18.90;95.80;;;;;;5027146;28;20508;-44
2021/06/23 07:51:32;;;;;;;16.30;9.68;;;18.80;96.30;;;;;;5029031;28;20053;-49
2021/06/23 07:56:54;;;;;;;30.98;26.25;;;18.60;96.20;;;;;;5026110;28;20477;-43
2021/06/23 08:10:14;;;;;;;6.47;2.33;;;18.90;94.80;;;;;;5026602;28;20041;-46
2021/06/23 08:12:51;;;;;;;14.68;11.30;;;18.70;95.30;;;;;;5023553;28;20046;-44
2021/06/23 08:15:17;;;;;;;15.40;9.07;;;18.60;95.60;;;;;;5029540;28;20042;-48
2021/06/23 08:17:43;;;;;;;11.63;3.67;;;18.50;95.00;;;;;;5033477;28;20064;-45
2021/06/23 08:20:16;;;;;;;12.43;5.20;;;18.40;95.70;;;;;;5040190;28;20057;-48
2021/06/23 08:22:44;;;;;;;10.40;5.10;;;18.30;93.90;;;;;;5025709;28;20107;-47
2021/06/23 08:25:12;;;;;;;5.32;1.98;;;18.10;95.30;;;;;;5027851;28;20049;-46
2021/06/23 08:27:42;;;;;;;9.70;2.47;;;18.00;94.50;;;;;;5026737;28;20045;-46
2021/06/23 08:30:10;;;;;;;9.20;3.65;;;18.10;94.80;;;;;;5030562;28;20116;-45
2021/06/23 08:32:37;;;;;;;15.23;10.50;;;18.30;95.40;;;;;;5026078;28;20120;-46
2021/06/23 08:35:06;;;;;;;11.88;3.00;;;18.50;95.40;;;;;;5027059;28;20088;-47
2021/06/23 08:37:32;;;;;;;9.32;2.33;;;18.50;95.20;;;;;;5025453;28;20053;-45
2021/06/23 08:40:01;;;;;;;10.57;2.97;;;18.90;95.50;;;;;;5027254;28;20069;-43
2021/06/23 08:42:27;;;;;;;12.00;3.90;;;19.10;95.10;;;;;;5023401;28;20127;-46
2021/06/23 08:44:54;;;;;;;8.50;2.67;;;19.10;94.70;;;;;;5024197;28;20145;-44
2021/06/23 08:47:21;;;;;;;13.55;7.80;;;19.00;94.40;;;;;;5026896;28;20046;-46
2021/06/23 08:49:47;;;;;;;12.60;3.33;;;18.90;94.60;;;;;;5028506;28;20043;-47
2021/06/23 08:52:14;;;;;;;9.77;2.78;;;18.80;94.70;;;;;;5026965;28;20049;-47
2021/06/23 08:54:42;;;;;;;13.70;7.93;;;18.70;94.80;;;;;;5018034;28;20047;-46
2021/06/23 08:57:09;;;;;;;8.52;2.60;;;18.70;94.20;;;;;;5026328;28;20045;-46
2021/06/23 08:59:40;;;;;;;6.63;2.60;;;18.50;94.40;;;;;;5024202;28;20037;-44
2021/06/23 09:02:14;;;;;;;9.18;2.80;;;18.50;94.50;;;;;;5021009;28;20402;-45
2021/06/23 09:05:01;;;;;;;9.20;3.42;;;18.40;94.10;;;;;;5026275;28;20033;-47
2021/06/23 09:08:04;;;;;;;10.95;4.95;;;18.40;93.80;;;;;;5024459;28;20042;-48
2021/06/23 09:10:38;;;;;;;9.17;3.23;;;18.40;94.10;;;;;;5002631;28;20041;-43
2021/06/23 09:13:07;;;;;;;7.53;2.92;;;18.40;94.10;;;;;;5005417;28;20305;-48
2021/06/23 09:15:40;;;;;;;11.63;3.25;;;18.30;94.60;;;;;;5003060;28;20760;-47
2021/06/23 09:18:13;;;;;;;9.57;3.15;;;18.40;94.30;;;;;;4996464;28;20045;-48
2021/06/23 09:20:40;;;;;;;7.80;3.00;;;18.40;94.00;;;;;;5003393;28;20100;-49
2021/06/23 09:23:07;;;;;;;9.52;2.83;;;18.40;93.90;;;;;;5003374;28;20056;-45
2021/06/23 09:25:38;;;;;;;8.93;2.97;;;18.40;93.50;;;;;;5005757;28;20061;-45
2021/06/23 09:28:15;;;;;;;4.97;2.60;;;18.40;93.50;;;;;;5002520;28;20521;-47
2021/06/23 09:30:48;;;;;;;9.93;3.00;;;18.60;92.60;;;;;;5004421;28;20073;-46
2021/06/23 09:33:17;;;;;;;7.70;2.15;;;18.80;93.50;;;;;;5003200;28;20050;-46
2021/06/23 09:36:00;;;;;;;9.40;2.55;;;18.80;93.20;;;;;;5003899;28;20049;-46
2021/06/23 09:38:48;;;;;;;8.77;2.50;;;18.90;93.40;;;;;;5006448;28;20045;-44
2021/06/23 09:41:28;;;;;;;7.90;2.50;;;19.10;92.50;;;;;;5004825;28;20517;-45
2021/06/23 09:44:06;;;;;;;7.07;2.38;;;19.20;92.20;;;;;;4982374;28;20084;-45
2021/06/23 09:46:40;;;;;;;7.68;2.42;;;19.30;92.60;;;;;;5001158;28;20049;-45
2021/06/23 09:49:22;;;;;;;9.77;3.00;;;19.40;91.20;;;;;;5001531;28;20050;-49
2021/06/23 09:51:54;;;;;;;11.13;2.75;;;19.40;91.00;;;;;;4997562;28;20494;-44
2021/06/23 09:54:30;;;;;;;13.77;6.13;;;19.30;91.90;;;;;;5009120;28;20727;-46
2021/06/23 09:57:03;;;;;;;10.77;3.92;;;19.50;90.80;;;;;;4985974;28;20057;-43
2021/06/23 09:59:36;;;;;;;11.43;3.67;;;19.60;91.00;;;;;;4996869;28;20053;-42
2021/06/23 10:02:04;;;;;;;18.95;11.85;;;19.50;90.30;;;;;;4993947;28;20073;-44
2021/06/23 10:04:35;;;;;;;17.50;9.88;;;19.40;90.80;;;;;;5001869;28;20125;-44
2021/06/23 10:07:03;;;;;;;25.60;18.60;;;19.30;90.80;;;;;;4994692;28;20103;-42
2021/06/23 10:09:31;;;;;;;13.18;5.65;;;19.20;90.80;;;;;;5015247;28;20042;-45
2021/06/23 10:12:01;;;;;;;10.88;2.55;;;19.30;91.20;;;;;;5000145;28;20057;-45
2021/06/23 10:14:30;;;;;;;6.88;3.15;;;19.30;91.10;;;;;;4997414;28;20579;-45
2021/06/23 10:17:02;;;;;;;9.95;3.55;;;19.30;91.50;;;;;;4990597;28;20060;-42
2021/06/23 10:19:29;;;;;;;9.48;2.88;;;19.40;91.30;;;;;;4992179;28;20097;-45
2021/06/23 10:22:00;;;;;;;13.07;7.68;;;19.30;91.20;;;;;;4987019;28;20038;-46
2021/06/23 10:24:28;;;;;;;6.72;2.28;;;19.20;91.10;;;;;;5000869;28;20060;-44
2021/06/23 10:26:57;;;;;;;7.65;2.80;;;19.10;90.90;;;;;;4991483;28;21700;-44
2021/06/23 10:29:30;;;;;;;6.45;2.60;;;19.00;91.40;;;;;;4994020;28;20061;-43
2021/06/23 10:31:58;;;;;;;6.50;2.45;;;18.90;90.20;;;;;;5003820;28;20042;-47
2021/06/23 10:34:26;;;;;;;19.05;13.77;;;19.00;91.00;;;;;;4991139;28;20050;-46
2021/06/23 10:36:54;;;;;;;9.15;4.25;;;19.00;90.70;;;;;;4988697;28;20054;-45
2021/06/23 10:39:21;;;;;;;26.70;19.08;;;19.10;91.00;;;;;;4998921;28;20046;-43
2021/06/23 10:41:51;;;;;;;22.00;16.27;;;19.20;91.20;;;;;;5007285;28;20096;-48
2021/06/23 10:44:26;;;;;;;28.63;24.75;;;19.30;91.10;;;;;;5007888;28;20042;-44
2021/06/23 10:46:58;;;;;;;9.75;3.35;;;19.20;90.50;;;;;;5005661;28;20048;-44
2021/06/23 10:49:50;;;;;;;7.97;2.60;;;19.20;90.50;;;;;;5006163;28;20044;-48
2021/06/23 10:52:20;;;;;;;7.88;2.70;;;19.30;89.70;;;;;;5007726;28;20160;-44
2021/06/23 10:54:54;;;;;;;14.48;8.60;;;19.30;89.60;;;;;;5009665;28;20053;-46
2021/06/23 10:57:27;;;;;;;10.25;4.30;;;19.40;89.60;;;;;;5007578;28;20057;-43
2021/06/23 10:59:53;;;;;;;;;;;19.40;88.70;;;;;;5003750;28;20053;-45
2021/06/23 11:02:29;;;;;;;7.38;2.25;;;19.30;89.20;;;;;;4994552;28;19940;-47
2021/06/23 11:05:03;;;;;;;9.82;3.17;;;19.30;88.80;;;;;;5006731;28;20053;-43
2021/06/23 11:07:36;;;;;;;7.90;2.47;;;19.20;87.40;;;;;;5011244;28;20038;-45
2021/06/23 11:10:15;;;;;;;7.78;2.88;;;19.30;87.30;;;;;;5009241;28;20042;-44
2021/06/23 11:12:52;;;;;;;6.35;2.95;;;19.20;85.60;;;;;;4992155;28;20050;-43
2021/06/23 11:15:35;;;;;;;8.05;3.53;;;19.30;86.50;;;;;;5006275;28;20045;-45
2021/06/23 11:18:21;;;;;;;7.55;2.47;;;19.20;87.70;;;;;;5009975;28;20049;-43
2021/06/23 11:20:58;;;;;;;9.60;2.60;;;19.40;89.30;;;;;;5008192;28;20060;-47
2021/06/23 11:23:48;;;;;;;7.30;2.25;;;19.30;88.00;;;;;;5006889;28;20057;-44
2021/06/23 11:26:23;;;;;;;6.35;2.45;;;19.60;85.10;;;;;;5015704;28;20052;-48
2021/06/23 11:28:55;;;;;;;9.98;3.15;;;19.60;87.10;;;;;;5008599;28;20076;-44
2021/06/23 11:32:05;;;;;;;12.20;3.42;;;19.80;84.70;;;;;;4994769;28;20046;-45
2021/06/23 11:34:38;;;;;;;11.55;2.45;;;19.80;83.60;;;;;;4966173;28;20062;-44
2021/06/23 11:37:07;;;;;;;10.30;3.50;;;19.80;81.30;;;;;;4949538;28;20121;-44
2021/06/23 11:39:34;;;;;;;9.63;3.25;;;20.00;84.10;;;;;;4961547;28;20047;-44
2021/06/23 11:42:01;;;;;;;9.10;3.60;;;20.10;84.00;;;;;;4970328;28;20051;-44
2021/06/23 11:44:30;;;;;;;6.95;2.22;;;20.30;83.00;;;;;;4967246;28;20477;-42
2021/06/23 11:47:01;;;;;;;6.65;2.33;;;20.60;82.10;;;;;;4966950;28;20051;-43
2021/06/23 11:49:42;;;;;;;6.85;2.40;;;20.80;79.20;;;;;;4963141;28;20484;-47
2021/06/23 11:52:24;;;;;;;6.93;2.67;;;21.10;80.30;;;;;;4979327;28;20061;-43
2021/06/23 11:54:51;;;;;;;7.10;2.30;;;21.60;80.30;;;;;;4967448;28;20439;-43
2021/06/23 11:57:17;;;;;;;7.00;2.55;;;22.40;80.40;;;;;;4969991;28;20042;-45
2021/06/23 11:59:44;;;;;;;18.25;14.65;;;22.70;76.00;;;;;;4964930;28;20134;-52
2021/06/23 12:02:11;;;;;;;10.25;5.78;;;22.40;72.60;;;;;;4962155;28;20074;-49
2021/06/23 12:04:38;;;;;;;16.42;10.60;;;22.60;70.70;;;;;;4965255;28;20538;-47
2021/06/23 12:07:04;;;;;;;11.77;7.25;;;22.70;69.10;;;;;;4966889;28;20059;-49
2021/06/23 12:09:31;;;;;;;44.13;39.47;;;22.80;70.10;;;;;;5006531;28;20093;-49
2021/06/23 12:11:58;;;;;;;19.85;12.85;;;23.60;68.60;;;;;;5004934;28;20057;-49
2021/06/23 12:14:27;;;;;;;5.47;2.67;;;23.90;63.10;;;;;;5006422;28;20391;-53
2021/06/23 12:16:53;;;;;;;9.00;2.65;;;24.20;65.80;;;;;;5011017;28;20095;-48
2021/06/23 12:19:19;;;;;;;10.88;3.85;;;24.60;66.50;;;;;;5008575;28;20390;-52
2021/06/23 12:21:45;;;;;;;8.88;2.70;;;24.00;64.70;;;;;;5009026;28;20037;-51
2021/06/23 12:24:12;;;;;;;7.22;2.75;;;23.80;64.10;;;;;;5008794;28;20054;-52
2021/06/23 12:26:38;;;;;;;13.43;7.40;;;23.50;64.10;;;;;;4997000;28;20100;-52
2021/06/23 12:29:05;;;;;;;7.00;2.97;;;23.20;62.90;;;;;;4989691;28;20510;-49
2021/06/23 12:31:31;;;;;;;5.72;2.40;;;22.70;64.30;;;;;;5008789;28;20069;-52
2021/06/23 12:33:58;;;;;;;12.95;9.20;;;22.40;64.80;;;;;;5006924;28;20495;-44
2021/06/23 12:36:24;;;;;;;15.70;11.98;;;22.00;65.50;;;;;;5005924;28;20053;-47
2021/06/23 12:38:50;;;;;;;10.10;6.55;;;21.70;66.60;;;;;;5008528;28;20046;-52
2021/06/23 12:41:16;;;;;;;8.05;2.53;;;21.70;68.80;;;;;;5000688;28;20104;-49
2021/06/23 12:43:43;;;;;;;6.00;2.10;;;21.70;69.40;;;;;;4988853;28;20042;-48
2021/06/23 12:46:10;;;;;;;6.18;3.55;;;21.60;70.00;;;;;;4989531;28;20088;-47
2021/06/23 12:48:38;;;;;;;7.15;2.70;;;21.50;70.90;;;;;;5003192;28;20777;-48
2021/06/23 12:51:07;;;;;;;9.35;2.13;;;21.30;69.00;;;;;;5007809;28;20077;-47
2021/06/23 12:53:34;;;;;;;4.90;2.47;;;20.90;68.40;;;;;;5007298;28;20148;-47
2021/06/23 12:56:00;;;;;;;6.10;2.22;;;20.90;70.60;;;;;;5007049;28;20057;-47
2021/06/23 12:58:26;;;;;;;10.73;4.78;;;21.00;70.40;;;;;;5020588;28;20042;-46
2021/06/23 13:00:52;;;;;;;8.75;3.95;;;21.30;69.90;;;;;;5005806;28;20129;-50
2021/06/23 13:03:20;;;;;;;11.50;5.05;;;21.60;69.80;;;;;;4991789;28;20054;-50
2021/06/23 13:05:47;;;;;;;8.02;4.50;;;22.20;68.80;;;;;;4994262;28;20050;-48
2021/06/23 13:08:13;;;;;;;9.98;4.20;;;22.70;66.20;;;;;;4990312;28;20181;-48
2021/06/23 13:10:39;;;;;;;9.50;5.20;;;22.90;66.00;;;;;;4990519;28;20112;-50
2021/06/23 13:13:09;;;;;;;10.43;5.45;;;22.70;65.20;;;;;;5010123;28;20156;-47